Pagina principale
METAR-TAF:

METAR-TAF

Aeroporti :

Logroño, Spagna

latitudine: 42-27N, longitudine: 002-20W, altezza: 353 m

Osservazione

Il bollettino è stato emesso 11 minuti fa, alle 03:00 UTC
Vento 4 kt da ovest
Temperature 2°C
Umidità 93%
Pressione 1030 hPa
Visibilità 10 km o più
nessuna nube inferiore a 1500 m e nessun cumulonembo

METAR: LELO 240300Z AUTO 26004KT CAVOK 02/01 Q1030

Ora: 04:11 (03:11 UTC)

Previsione

Il bollettino è stato emesso 1 ora e 11 minuti fa, alle 02:00 UTC
Previsione valida dal 24 alle 03 UTC al 24 alle 12 UTC
Vento 6 kt da ovest
Visibilità 10 km o più
nessuna nube inferiore a 1500 m e nessun cumulonembo

TAF: LELO 240200Z 2403/2412 27006KT CAVOK

Osservazioni e previsioni meteorologiche di più di 4000 aeroporti (messaggi METAR e TAF).

Le stazioni disponibili sono rappresentate dai dischi gialli e rossi sulla carta.

Puntare il mouse per vedere il nome della stazione.

Clicca sopra per visualizzare le osservazioni e previsioni meteorologiche.

Per cambiare la mappa : fare clic sui pulsanti verdi con una croce nera per ingrandire, il pulsante verde con un trattino per diminuire, o sulla freccia verde per le mappe adiacenti.


METAR-TAF: